Time;durP1;ratioP1;P1;durP2;ratioP2;P2;SDS_P1;SDS_P2;PMS_P1;PMS_P2;Temp;Humidity;BMP_temperature;BMP_pressure;BME280_temperature;BME280_humidity;BME280_pressure;Samples;Min_cycle;Max_cycle;Signal;HPM_P1;HPM_P2
2022/04/15 00:01:27;;;;;;;20.20;14.68;;;;;;;;;;10436120;28;20060;-72
2022/04/15 00:06:29;;;;;;;19.83;15.68;;;;;;;;;;10437504;28;20252;-71
2022/04/15 00:11:32;;;;;;;19.58;15.18;;;;;;;;;;10435565;28;20053;-72
2022/04/15 00:16:37;;;;;;;19.25;14.68;;;;;;;;;;10419213;28;20172;-72
2022/04/15 00:21:40;;;;;;;17.77;13.80;;;;;;;;;;10469245;28;20053;-71
2022/04/15 00:26:42;;;;;;;17.35;13.15;;;;;;;;;;10440981;28;20049;-71
2022/04/15 00:31:47;;;;;;;16.00;13.73;;;;;;;;;;10434628;28;20253;-71
2022/04/15 00:36:49;;;;;;;17.33;14.35;;;;;;;;;;10434781;28;20348;-71
2022/04/15 00:41:52;;;;;;;19.88;15.15;;;;;;;;;;10353232;28;20038;-70
2022/04/15 00:46:57;;;;;;;23.35;16.33;;;;;;;;;;10351222;28;20105;-71
2022/04/15 00:52:00;;;;;;;26.95;18.00;;;;;;;;;;10376501;28;20061;-71
2022/04/15 00:57:03;;;;;;;39.55;20.25;;;;;;;;;;10369895;28;20089;-70
2022/04/15 01:02:09;;;;;;;28.35;18.80;;;;;;;;;;10349792;28;20096;-71
2022/04/15 01:07:16;;;;;;;29.40;20.95;;;;;;;;;;10353240;28;20050;-71
2022/04/15 01:12:19;;;;;;;36.63;22.15;;;;;;;;;;10363539;28;20096;-72
2022/04/15 01:17:24;;;;;;;42.15;24.27;;;;;;;;;;10351896;28;20043;-72
2022/04/15 01:22:32;;;;;;;36.92;23.77;;;;;;;;;;10375677;28;20442;-72
2022/04/15 01:27:38;;;;;;;35.30;25.17;;;;;;;;;;10367906;28;20053;-71
2022/04/15 01:32:42;;;;;;;42.78;26.75;;;;;;;;;;10361431;28;20277;-72
2022/04/15 01:37:46;;;;;;;41.70;26.88;;;;;;;;;;10365938;28;20058;-71
2022/04/15 01:42:50;;;;;;;42.78;27.00;;;;;;;;;;10415651;28;20055;-71
2022/04/15 01:47:52;;;;;;;41.30;25.38;;;;;;;;;;10430872;28;20053;-71
2022/04/15 01:52:56;;;;;;;41.47;25.00;;;;;;;;;;10455921;28;20056;-71
2022/04/15 01:57:59;;;;;;;38.17;24.45;;;;;;;;;;10451479;28;20049;-72
2022/04/15 02:03:02;;;;;;;34.63;25.53;;;;;;;;;;10432875;28;20399;-71
2022/04/15 02:08:05;;;;;;;29.48;22.40;;;;;;;;;;10429826;28;20041;-71
2022/04/15 02:13:09;;;;;;;34.15;21.75;;;;;;;;;;10432610;28;20052;-72
2022/04/15 02:18:13;;;;;;;30.75;22.35;;;;;;;;;;10430779;28;20240;-72
2022/04/15 02:23:15;;;;;;;28.70;21.45;;;;;;;;;;10430078;28;20056;-72
2022/04/15 02:28:19;;;;;;;33.47;22.05;;;;;;;;;;10441125;28;20048;-71
2022/04/15 02:33:22;;;;;;;33.10;22.00;;;;;;;;;;10461345;28;20052;-72
2022/04/15 02:38:24;;;;;;;26.65;20.38;;;;;;;;;;10430402;28;20072;-72
2022/04/15 02:43:31;;;;;;;27.38;20.20;;;;;;;;;;10441394;28;20061;-71
2022/04/15 02:48:35;;;;;;;25.77;19.88;;;;;;;;;;10429629;28;20069;-71
2022/04/15 02:53:37;;;;;;;28.05;19.38;;;;;;;;;;10434690;28;20063;-71
2022/04/15 02:58:41;;;;;;;25.58;18.92;;;;;;;;;;10461362;28;20384;-71
2022/04/15 03:03:43;;;;;;;25.50;18.33;;;;;;;;;;10433737;28;20067;-72
2022/04/15 03:08:46;;;;;;;26.00;19.77;;;;;;;;;;10470428;28;20152;-71
2022/04/15 03:13:50;;;;;;;25.48;19.02;;;;;;;;;;10430093;28;20053;-71
2022/04/15 03:18:53;;;;;;;27.55;19.73;;;;;;;;;;10430016;28;20041;-71
2022/04/15 03:23:55;;;;;;;28.80;20.77;;;;;;;;;;10429802;28;20053;-71
2022/04/15 03:28:58;;;;;;;31.08;21.02;;;;;;;;;;10438325;28;20062;-71
2022/04/15 03:34:01;;;;;;;38.30;22.33;;;;;;;;;;10429513;28;20077;-71
2022/04/15 03:39:04;;;;;;;31.88;22.13;;;;;;;;;;10435404;28;20071;-72
2022/04/15 03:44:10;;;;;;;31.13;21.77;;;;;;;;;;10419844;28;20061;-71
2022/04/15 03:49:13;;;;;;;33.03;23.17;;;;;;;;;;10445868;28;20355;-72
2022/04/15 03:54:15;;;;;;;38.58;26.23;;;;;;;;;;10437852;28;20052;-72
2022/04/15 03:59:19;;;;;;;39.63;25.15;;;;;;;;;;10435574;28;20076;-71
2022/04/15 04:04:21;;;;;;;38.10;25.25;;;;;;;;;;10435540;28;20061;-72
2022/04/15 04:09:23;;;;;;;40.38;24.15;;;;;;;;;;10419790;28;20048;-71
2022/04/15 04:14:27;;;;;;;45.03;24.95;;;;;;;;;;10436401;28;20091;-72
2022/04/15 04:19:30;;;;;;;47.65;26.77;;;;;;;;;;10436991;28;20041;-72
2022/04/15 04:24:33;;;;;;;53.67;28.60;;;;;;;;;;10476688;28;20060;-71
2022/04/15 04:29:36;;;;;;;61.80;31.45;;;;;;;;;;10437198;28;20053;-71
2022/04/15 04:34:40;;;;;;;61.97;33.65;;;;;;;;;;10436237;28;20091;-72
2022/04/15 04:39:43;;;;;;;62.15;36.78;;;;;;;;;;10435732;28;20058;-72
2022/04/15 04:44:47;;;;;;;71.57;37.65;;;;;;;;;;10435777;28;20042;-72
2022/04/15 04:49:52;;;;;;;65.47;35.42;;;;;;;;;;10433404;28;20066;-69
2022/04/15 04:54:55;;;;;;;50.55;30.98;;;;;;;;;;10435903;28;20057;-69
2022/04/15 04:59:59;;;;;;;58.58;31.35;;;;;;;;;;10435692;28;20042;-71
2022/04/15 05:05:01;;;;;;;43.88;27.85;;;;;;;;;;10434866;28;20068;-72
2022/04/15 05:10:04;;;;;;;42.50;26.52;;;;;;;;;;10434939;28;20053;-72
2022/04/15 05:15:11;;;;;;;44.65;26.35;;;;;;;;;;10428015;28;20048;-72
2022/04/15 05:20:14;;;;;;;39.17;23.58;;;;;;;;;;10447923;28;20277;-72
2022/04/15 05:25:17;;;;;;;49.65;26.40;;;;;;;;;;10473718;28;20056;-69
2022/04/15 05:30:21;;;;;;;45.75;26.88;;;;;;;;;;10430878;28;20053;-72
2022/04/15 05:35:24;;;;;;;45.63;26.17;;;;;;;;;;10433204;28;20041;-70
2022/04/15 05:40:28;;;;;;;42.05;25.13;;;;;;;;;;10433357;28;20061;-73
2022/04/15 05:45:32;;;;;;;41.33;23.90;;;;;;;;;;10432682;28;20045;-72
2022/04/15 05:50:34;;;;;;;36.22;23.65;;;;;;;;;;10429037;28;20084;-71
2022/04/15 05:55:37;;;;;;;36.90;23.23;;;;;;;;;;10463861;28;20112;-71
2022/04/15 06:00:40;;;;;;;40.10;25.27;;;;;;;;;;10440472;28;20076;-70
2022/04/15 06:05:43;;;;;;;45.78;29.95;;;;;;;;;;10432422;28;20056;-72
2022/04/15 06:10:45;;;;;;;48.42;33.75;;;;;;;;;;10432781;28;20340;-70
2022/04/15 06:15:53;;;;;;;45.50;30.20;;;;;;;;;;10446369;28;20076;-71
2022/04/15 06:20:55;;;;;;;41.67;29.95;;;;;;;;;;10475766;28;20336;-73
2022/04/15 06:25:57;;;;;;;40.58;27.92;;;;;;;;;;10439309;28;20068;-70
2022/04/15 06:31:02;;;;;;;36.58;24.98;;;;;;;;;;10431100;28;20278;-71
2022/04/15 06:36:05;;;;;;;39.55;27.45;;;;;;;;;;10431571;28;20067;-69
2022/04/15 06:41:07;;;;;;;36.15;24.70;;;;;;;;;;10436419;28;20103;-69
2022/04/15 06:46:14;;;;;;;34.67;26.30;;;;;;;;;;10437623;28;20088;-70
2022/04/15 06:51:17;;;;;;;35.95;22.92;;;;;;;;;;10431706;28;20060;-72
2022/04/15 06:56:19;;;;;;;53.88;39.47;;;;;;;;;;10431551;28;20049;-73
2022/04/15 07:01:24;;;;;;;40.92;24.20;;;;;;;;;;10429925;28;20053;-73
2022/04/15 07:06:27;;;;;;;37.30;25.08;;;;;;;;;;10452827;28;20041;-70
2022/04/15 07:11:29;;;;;;;45.92;30.20;;;;;;;;;;10451461;28;20071;-72
2022/04/15 07:16:34;;;;;;;48.30;32.70;;;;;;;;;;10436362;28;20099;-73
2022/04/15 07:21:37;;;;;;;50.22;30.58;;;;;;;;;;10446615;28;20045;-70
2022/04/15 07:26:40;;;;;;;49.92;34.47;;;;;;;;;;10424329;28;20257;-72
2022/04/15 07:31:44;;;;;;;44.85;28.92;;;;;;;;;;10421484;28;20062;-73
2022/04/15 07:36:53;;;;;;;42.83;27.20;;;;;;;;;;10417317;28;20089;-71
2022/04/15 07:41:56;;;;;;;55.92;39.65;;;;;;;;;;10337272;28;20046;-74
2022/04/15 07:47:01;;;;;;;38.38;31.02;;;;;;;;;;10346146;28;20391;-72
2022/04/15 07:52:06;;;;;;;31.02;22.75;;;;;;;;;;10349596;28;20101;-71
2022/04/15 07:57:08;;;;;;;33.35;22.17;;;;;;;;;;10357262;28;20042;-72
2022/04/15 08:02:13;;;;;;;31.65;21.45;;;;;;;;;;10355465;28;20093;-73
2022/04/15 08:07:16;;;;;;;39.00;28.27;;;;;;;;;;10355965;28;20061;-71
2022/04/15 08:12:18;;;;;;;42.05;30.95;;;;;;;;;;10354523;28;20066;-72
2022/04/15 08:17:22;;;;;;;39.92;27.05;;;;;;;;;;10356052;28;20042;-72
2022/04/15 08:22:24;;;;;;;40.80;27.60;;;;;;;;;;10369647;28;20058;-71
2022/04/15 08:27:26;;;;;;;41.85;28.38;;;;;;;;;;10370803;28;20057;-71
2022/04/15 08:32:33;;;;;;;45.33;29.58;;;;;;;;;;10354722;28;20073;-71
2022/04/15 08:37:36;;;;;;;36.75;26.85;;;;;;;;;;10376266;28;20050;-72
2022/04/15 08:42:41;;;;;;;40.22;25.95;;;;;;;;;;10434971;28;20277;-71
2022/04/15 08:47:45;;;;;;;;;;;;;;;;;;10436338;28;20336;-72
2022/04/15 08:52:48;;;;;;;34.75;24.42;;;;;;;;;;10440899;28;20236;-73
2022/04/15 08:57:51;;;;;;;32.03;23.02;;;;;;;;;;10435136;28;20048;-73
2022/04/15 09:02:57;;;;;;;29.58;22.75;;;;;;;;;;10434136;28;20237;-72
2022/04/15 09:08:06;;;;;;;28.60;22.35;;;;;;;;;;10456619;28;20270;-72
2022/04/15 09:13:20;;;;;;;28.15;21.73;;;;;;;;;;10481472;28;20083;-72
2022/04/15 09:18:36;;;;;;;27.60;21.70;;;;;;;;;;10438730;28;20041;-74
2022/04/15 09:23:40;;;;;;;26.80;21.25;;;;;;;;;;10447359;28;20120;-74
2022/04/15 09:28:43;;;;;;;31.25;22.65;;;;;;;;;;10434426;28;20056;-72
2022/04/15 09:33:57;;;;;;;27.75;21.45;;;;;;;;;;10432250;28;20225;-72
2022/04/15 09:39:10;;;;;;;25.23;20.50;;;;;;;;;;10451610;28;20060;-70
2022/04/15 09:44:13;;;;;;;27.45;19.60;;;;;;;;;;10454864;28;20048;-74
2022/04/15 09:49:17;;;;;;;24.83;18.63;;;;;;;;;;10425687;28;20049;-71
2022/04/15 09:54:24;;;;;;;19.80;17.40;;;;;;;;;;10434685;28;20087;-74
2022/04/15 09:59:29;;;;;;;25.92;19.35;;;;;;;;;;10452615;28;20040;-73
2022/04/15 10:04:34;;;;;;;20.55;17.73;;;;;;;;;;10453353;28;20045;-73
2022/04/15 10:09:39;;;;;;;22.77;18.52;;;;;;;;;;10425930;28;20383;-72
2022/04/15 10:14:41;;;;;;;20.65;16.65;;;;;;;;;;10430557;28;20305;-74
2022/04/15 10:19:46;;;;;;;22.02;15.27;;;;;;;;;;10432162;28;20045;-74
2022/04/15 10:24:48;;;;;;;15.63;12.15;;;;;;;;;;10429494;28;20108;-74
2022/04/15 10:30:01;;;;;;;18.92;12.45;;;;;;;;;;10433113;28;20045;-73
2022/04/15 10:35:08;;;;;;;15.00;13.27;;;;;;;;;;10431103;28;20037;-72
2022/04/15 10:40:23;;;;;;;13.27;11.90;;;;;;;;;;10433087;28;20070;-73
2022/04/15 10:45:27;;;;;;;11.52;10.23;;;;;;;;;;10440825;28;20329;-73
2022/04/15 10:50:35;;;;;;;12.90;11.05;;;;;;;;;;10442022;28;20053;-72
2022/04/15 10:55:43;;;;;;;18.60;12.75;;;;;;;;;;10453232;28;20041;-72
2022/04/15 11:06:09;;;;;;;14.85;13.05;;;;;;;;;;10439727;28;20082;-73
2022/04/15 11:11:12;;;;;;;18.30;15.65;;;;;;;;;;10450671;28;20053;-74
2022/04/15 11:16:16;;;;;;;19.98;17.88;;;;;;;;;;10439617;28;20056;-74
2022/04/15 11:21:22;;;;;;;22.52;18.10;;;;;;;;;;10439701;28;20041;-74
2022/04/15 11:26:27;;;;;;;18.67;16.65;;;;;;;;;;10438263;28;20041;-75
2022/04/15 11:31:31;;;;;;;15.93;13.98;;;;;;;;;;10436880;28;20057;-73
2022/04/15 11:36:36;;;;;;;19.38;15.25;;;;;;;;;;10438857;28;20061;-73
2022/04/15 11:41:46;;;;;;;16.48;12.98;;;;;;;;;;10438118;28;20062;-73
2022/04/15 11:46:50;;;;;;;17.15;14.43;;;;;;;;;;10452417;28;20041;-71
2022/04/15 11:51:55;;;;;;;17.45;15.48;;;;;;;;;;10437966;28;20080;-73
2022/04/15 11:56:59;;;;;;;18.65;15.57;;;;;;;;;;10434562;28;20041;-73
2022/04/15 12:02:02;;;;;;;20.40;15.97;;;;;;;;;;10438183;28;20050;-72
2022/04/15 12:07:15;;;;;;;19.92;17.83;;;;;;;;;;10438696;28;20396;-73
2022/04/15 12:12:20;;;;;;;15.23;13.73;;;;;;;;;;10436526;28;20057;-72
2022/04/15 12:17:24;;;;;;;15.07;12.82;;;;;;;;;;10435422;28;20048;-72
2022/04/15 12:22:28;;;;;;;16.57;12.97;;;;;;;;;;10474569;28;20359;-72
2022/04/15 12:27:34;;;;;;;12.05;10.15;;;;;;;;;;10423647;28;20212;-73
2022/04/15 12:32:36;;;;;;;8.68;7.88;;;;;;;;;;10433022;28;20059;-73
2022/04/15 12:37:43;;;;;;;10.75;9.75;;;;;;;;;;10430106;28;20072;-72
2022/04/15 12:42:47;;;;;;;15.85;12.63;;;;;;;;;;10449362;28;20053;-73
2022/04/15 12:47:59;;;;;;;19.37;17.57;;;;;;;;;;10435037;28;20050;-72
2022/04/15 12:53:13;;;;;;;19.95;17.85;;;;;;;;;;10450686;28;20197;-72
2022/04/15 12:58:21;;;;;;;17.03;12.20;;;;;;;;;;10435621;28;20068;-74
2022/04/15 13:03:25;;;;;;;14.55;11.27;;;;;;;;;;10462109;28;20512;-72
2022/04/15 13:08:29;;;;;;;16.48;12.70;;;;;;;;;;10450217;28;20041;-73
2022/04/15 13:13:33;;;;;;;16.25;13.43;;;;;;;;;;10435702;28;20252;-73
2022/04/15 13:18:35;;;;;;;17.98;13.23;;;;;;;;;;10420244;28;20060;-70
2022/04/15 13:23:39;;;;;;;25.08;15.07;;;;;;;;;;10459916;28;20040;-72
2022/04/15 13:28:42;;;;;;;23.00;15.13;;;;;;;;;;10449780;28;20041;-72
2022/04/15 13:33:45;;;;;;;20.73;14.93;;;;;;;;;;10434390;28;20041;-72
2022/04/15 13:38:49;;;;;;;22.05;15.27;;;;;;;;;;10458067;28;20076;-72
2022/04/15 13:43:53;;;;;;;24.10;15.33;;;;;;;;;;10450436;28;20041;-72
2022/04/15 13:48:55;;;;;;;18.00;13.32;;;;;;;;;;10433038;28;20295;-73
2022/04/15 13:59:20;;;;;;;18.42;13.73;;;;;;;;;;10433527;28;20056;-72
2022/04/15 14:04:22;;;;;;;16.50;11.98;;;;;;;;;;10432925;28;20383;-71
2022/04/15 14:09:26;;;;;;;15.35;11.50;;;;;;;;;;10431733;28;20056;-74
2022/04/15 14:14:29;;;;;;;18.27;12.98;;;;;;;;;;10461344;28;20044;-72
2022/04/15 14:19:32;;;;;;;19.52;14.88;;;;;;;;;;10469121;28;20041;-74
2022/04/15 14:24:37;;;;;;;24.23;15.88;;;;;;;;;;10446755;28;20056;-75
2022/04/15 14:29:40;;;;;;;;;;;;;;;;;;10434462;28;20041;-69
2022/04/15 14:34:42;;;;;;;42.10;25.85;;;;;;;;;;10434284;28;19940;-71
2022/04/15 14:39:47;;;;;;;61.03;36.80;;;;;;;;;;10431898;28;20045;-72
2022/04/15 14:44:50;;;;;;;69.47;39.97;;;;;;;;;;10432622;28;20077;-72
2022/04/15 14:49:53;;;;;;;70.22;40.90;;;;;;;;;;10427574;28;20156;-72
2022/04/15 14:54:59;;;;;;;78.55;43.67;;;;;;;;;;10442715;28;20045;-71
2022/04/15 15:00:04;;;;;;;78.63;44.38;;;;;;;;;;10432913;28;20268;-72
2022/04/15 15:05:09;;;;;;;69.50;39.72;;;;;;;;;;10442468;28;20049;-73
2022/04/15 15:10:13;;;;;;;69.80;38.60;;;;;;;;;;10431618;28;20047;-73
2022/04/15 15:15:16;;;;;;;69.38;38.45;;;;;;;;;;10431625;28;20076;-72
2022/04/15 15:20:18;;;;;;;70.43;39.60;;;;;;;;;;10466131;28;20048;-73
2022/04/15 15:30:46;;;;;;;64.00;35.45;;;;;;;;;;10431713;28;20214;-71
2022/04/15 15:35:50;;;;;;;64.95;37.45;;;;;;;;;;10438179;28;20348;-73
2022/04/15 15:40:56;;;;;;;59.58;33.92;;;;;;;;;;10439866;28;20069;-73
2022/04/15 15:45:59;;;;;;;61.88;33.97;;;;;;;;;;10437996;28;20344;-73
2022/04/15 15:51:01;;;;;;;65.18;37.65;;;;;;;;;;10444093;28;20041;-71
2022/04/15 15:56:06;;;;;;;61.83;36.25;;;;;;;;;;10438464;28;20088;-74
2022/04/15 16:01:08;;;;;;;53.33;31.70;;;;;;;;;;10435807;28;20041;-73
2022/04/15 16:06:11;;;;;;;39.13;23.70;;;;;;;;;;10466835;28;20056;-72
2022/04/15 16:11:14;;;;;;;49.05;28.63;;;;;;;;;;10449694;28;20041;-72
2022/04/15 16:16:17;;;;;;;51.03;28.63;;;;;;;;;;10437657;28;20107;-73
2022/04/15 16:21:19;;;;;;;63.97;33.00;;;;;;;;;;10470117;28;20219;-73
2022/04/15 16:26:23;;;;;;;57.45;30.58;;;;;;;;;;10436399;28;20037;-73
2022/04/15 16:31:26;;;;;;;69.13;32.50;;;;;;;;;;10432836;28;20068;-72
2022/04/15 16:41:40;;;;;;;57.30;28.73;;;;;;;;;;11504703;22;20063;-71
2022/04/15 16:46:43;;;;;;;47.35;27.27;;;;;;;;;;10473708;28;20535;-71
2022/04/15 16:51:45;;;;;;;56.38;30.00;;;;;;;;;;10469046;28;20049;-71
2022/04/15 17:02:23;;;;;;;59.28;32.45;;;;;;;;;;10312874;28;20169;-67
2022/04/15 17:07:26;;;;;;;53.90;30.08;;;;;;;;;;10355792;28;20069;-71
2022/04/15 17:12:29;;;;;;;49.28;28.55;;;;;;;;;;10394976;28;20058;-72
2022/04/15 17:17:32;;;;;;;43.47;26.38;;;;;;;;;;10350348;28;20054;-73
2022/04/15 17:22:37;;;;;;;53.42;32.22;;;;;;;;;;10345130;28;20042;-69
2022/04/15 17:27:41;;;;;;;;;;;;;;;;;;10341424;28;20356;-73
2022/04/15 17:32:43;;;;;;;44.53;27.63;;;;;;;;;;10406383;28;20230;-73
2022/04/15 17:37:46;;;;;;;36.47;23.27;;;;;;;;;;10455864;28;20129;-69
2022/04/15 17:42:50;;;;;;;41.95;26.80;;;;;;;;;;10440472;28;20372;-71
2022/04/15 17:47:52;;;;;;;40.53;27.35;;;;;;;;;;10428213;28;20474;-71
2022/04/15 17:52:55;;;;;;;44.67;28.17;;;;;;;;;;10433329;28;20041;-73
2022/04/15 17:57:59;;;;;;;41.83;26.75;;;;;;;;;;10428990;28;20046;-70
2022/04/15 18:03:02;;;;;;;36.85;22.60;;;;;;;;;;10424775;28;20099;-74
2022/04/15 18:08:04;;;;;;;32.90;22.75;;;;;;;;;;10433078;28;20057;-70
2022/04/15 18:13:11;;;;;;;39.03;24.65;;;;;;;;;;10405164;28;20348;-71
2022/04/15 18:18:13;;;;;;;56.03;32.65;;;;;;;;;;10407000;28;20137;-70
2022/04/15 18:23:15;;;;;;;47.75;29.45;;;;;;;;;;10423881;28;20041;-71
2022/04/15 18:28:19;;;;;;;40.25;23.77;;;;;;;;;;10435603;28;20052;-71
2022/04/15 18:33:23;;;;;;;43.78;23.58;;;;;;;;;;10437634;28;20235;-70
2022/04/15 18:38:25;;;;;;;51.88;29.83;;;;;;;;;;10434480;28;20057;-73
2022/04/15 18:43:29;;;;;;;55.20;27.83;;;;;;;;;;10433754;28;20076;-71
2022/04/15 18:53:52;;;;;;;44.72;24.88;;;;;;;;;;10447244;28;20045;-71
2022/04/15 18:58:55;;;;;;;45.78;27.42;;;;;;;;;;10435037;28;20053;-70
2022/04/15 19:03:59;;;;;;;50.57;30.73;;;;;;;;;;10432937;28;20041;-70
2022/04/15 19:09:01;;;;;;;22.95;16.73;;;;;;;;;;10438208;28;20068;-70
2022/04/15 19:14:06;;;;;;;36.97;21.90;;;;;;;;;;10440953;28;20274;-72
2022/04/15 19:19:08;;;;;;;40.10;23.52;;;;;;;;;;10439139;28;20044;-72
2022/04/15 19:24:11;;;;;;;53.17;28.63;;;;;;;;;;10439379;28;20062;-70
2022/04/15 19:29:15;;;;;;;42.17;27.90;;;;;;;;;;10426499;28;20231;-71
2022/04/15 19:34:17;;;;;;;44.00;25.38;;;;;;;;;;10440899;28;20144;-70
2022/04/15 19:39:19;;;;;;;35.00;21.48;;;;;;;;;;10440473;28;20354;-71
2022/04/15 19:44:24;;;;;;;32.78;21.25;;;;;;;;;;10439723;28;20267;-68
2022/04/15 19:49:26;;;;;;;33.97;20.08;;;;;;;;;;10440750;28;20049;-71
2022/04/15 19:54:28;;;;;;;47.72;26.58;;;;;;;;;;10440730;28;20353;-69
2022/04/15 20:04:52;;;;;;;36.45;21.58;;;;;;;;;;10451696;28;20364;-71
2022/04/15 20:09:54;;;;;;;28.23;18.85;;;;;;;;;;10441670;28;20065;-71
2022/04/15 20:14:58;;;;;;;25.52;18.60;;;;;;;;;;10439796;28;20060;-70
2022/04/15 20:20:02;;;;;;;25.00;17.13;;;;;;;;;;10434895;28;20064;-70
2022/04/15 20:25:05;;;;;;;34.55;21.58;;;;;;;;;;10435870;28;20045;-68
2022/04/15 20:30:10;;;;;;;26.40;17.73;;;;;;;;;;10438104;28;20057;-69
2022/04/15 20:35:14;;;;;;;23.77;16.05;;;;;;;;;;10438517;28;20095;-70
2022/04/15 20:40:18;;;;;;;24.08;14.88;;;;;;;;;;10425478;28;20042;-69
2022/04/15 20:45:24;;;;;;;20.48;13.10;;;;;;;;;;10438622;28;20069;-70
2022/04/15 20:50:26;;;;;;;24.10;14.20;;;;;;;;;;10435924;28;20054;-70
2022/04/15 20:55:29;;;;;;;18.50;12.98;;;;;;;;;;10433394;28;20068;-70
2022/04/15 21:00:35;;;;;;;19.13;12.93;;;;;;;;;;10435428;28;20049;-70
2022/04/15 21:05:37;;;;;;;22.13;13.00;;;;;;;;;;10434281;28;20358;-69
2022/04/15 21:10:40;;;;;;;15.90;10.35;;;;;;;;;;10434248;28;20045;-69
2022/04/15 21:15:44;;;;;;;16.25;11.00;;;;;;;;;;10434251;28;20052;-69
2022/04/15 21:20:47;;;;;;;17.63;12.05;;;;;;;;;;10435994;28;20099;-69
2022/04/15 21:25:49;;;;;;;13.20;10.43;;;;;;;;;;10429118;28;20057;-70
2022/04/15 21:30:55;;;;;;;14.10;10.63;;;;;;;;;;10433403;28;20104;-70
2022/04/15 21:35:59;;;;;;;16.75;10.45;;;;;;;;;;10447682;28;20080;-69
2022/04/15 21:41:02;;;;;;;11.45;9.88;;;;;;;;;;10434331;28;20077;-68
2022/04/15 21:46:05;;;;;;;15.43;10.27;;;;;;;;;;10394694;28;20336;-69
2022/04/15 21:56:28;;;;;;;13.85;8.48;;;;;;;;;;10408579;28;20246;-68
2022/04/15 22:01:31;;;;;;;20.33;9.00;;;;;;;;;;10433712;28;20038;-68
2022/04/15 22:06:34;;;;;;;12.65;8.65;;;;;;;;;;10433439;28;20385;-70
2022/04/15 22:11:36;;;;;;;12.70;9.35;;;;;;;;;;10432603;28;20065;-69
2022/04/15 22:16:40;;;;;;;12.65;9.75;;;;;;;;;;10431886;28;20069;-69
2022/04/15 22:21:43;;;;;;;10.65;8.90;;;;;;;;;;10421552;28;20042;-68
2022/04/15 22:26:45;;;;;;;11.45;7.97;;;;;;;;;;10400690;28;20068;-70
2022/04/15 22:31:49;;;;;;;11.57;7.05;;;;;;;;;;10431354;28;20377;-69
2022/04/15 22:36:51;;;;;;;10.73;7.05;;;;;;;;;;10430915;28;20068;-69
2022/04/15 22:41:55;;;;;;;13.43;8.63;;;;;;;;;;10428900;28;20299;-70
2022/04/15 22:47:06;;;;;;;9.35;8.43;;;;;;;;;;10432558;28;20092;-68
2022/04/15 22:52:08;;;;;;;13.93;7.63;;;;;;;;;;10432029;28;20049;-68
2022/04/15 22:57:11;;;;;;;14.70;7.18;;;;;;;;;;10431885;28;20076;-71
2022/04/15 23:02:14;;;;;;;13.57;7.50;;;;;;;;;;10432366;28;20041;-69
2022/04/15 23:07:17;;;;;;;11.38;8.05;;;;;;;;;;10419141;28;20042;-70
2022/04/15 23:12:20;;;;;;;15.63;8.43;;;;;;;;;;10392320;28;20070;-69
2022/04/15 23:17:24;;;;;;;13.32;9.45;;;;;;;;;;10423694;28;20060;-70
2022/04/15 23:22:26;;;;;;;15.00;9.93;;;;;;;;;;10431465;28;20303;-69
2022/04/15 23:27:31;;;;;;;11.13;10.07;;;;;;;;;;10429781;28;20049;-69
2022/04/15 23:32:34;;;;;;;14.57;10.90;;;;;;;;;;10430450;28;20076;-69
2022/04/15 23:37:37;;;;;;;10.20;9.13;;;;;;;;;;10430335;28;20095;-69
2022/04/15 23:42:41;;;;;;;13.30;10.88;;;;;;;;;;10429202;28;20057;-70
2022/04/15 23:53:05;;;;;;;10.82;8.88;;;;;;;;;;10443475;28;20041;-69
2022/04/15 23:58:09;;;;;;;13.15;7.70;;;;;;;;;;10436881;28;20053;-70
